Time;durP1;ratioP1;P1;durP2;ratioP2;P2;SDS_P1;SDS_P2;PMS_P1;PMS_P2;Temp;Humidity;BMP_temperature;BMP_pressure;BME280_temperature;BME280_humidity;BME280_pressure;Samples;Min_cycle;Max_cycle;Signal;HPM_P1;HPM_P2
2023/05/03 00:01:23;;;;;;;0.00;0.00;;;8.60;71.40;;;;;;4973851;28;20057;-64
2023/05/03 00:03:51;;;;;;;0.00;0.00;;;8.60;71.50;;;;;;4977739;28;20066;-64
2023/05/03 00:06:18;;;;;;;0.00;0.00;;;8.60;71.40;;;;;;4971090;28;20043;-64
2023/05/03 00:08:44;;;;;;;0.00;0.00;;;8.60;71.50;;;;;;4969416;28;20069;-64
2023/05/03 00:11:10;;;;;;;0.00;0.00;;;8.60;71.20;;;;;;4970237;28;20499;-64
2023/05/03 00:13:35;;;;;;;0.00;0.00;;;8.60;71.50;;;;;;4963867;28;20043;-65
2023/05/03 00:16:01;;;;;;;0.00;0.00;;;8.60;71.70;;;;;;4985992;28;20052;-65
2023/05/03 00:18:28;;;;;;;0.00;0.00;;;8.60;71.70;;;;;;4978316;28;20078;-65
2023/05/03 00:20:54;;;;;;;0.00;0.00;;;8.60;71.60;;;;;;4951332;28;20043;-65
2023/05/03 00:23:20;;;;;;;0.00;0.00;;;8.60;71.70;;;;;;4962281;28;20050;-64
2023/05/03 00:25:46;;;;;;;0.00;0.00;;;8.60;71.90;;;;;;4952261;28;20055;-65
2023/05/03 00:28:11;;;;;;;0.00;0.00;;;8.60;71.90;;;;;;4964066;28;20515;-65
2023/05/03 00:30:37;;;;;;;0.00;0.00;;;8.60;71.90;;;;;;4979838;28;20440;-64
2023/05/03 00:33:02;;;;;;;0.00;0.00;;;8.60;71.80;;;;;;4986606;28;20053;-65
2023/05/03 00:35:28;;;;;;;0.00;0.00;;;8.60;71.80;;;;;;4967198;28;20043;-65
2023/05/03 00:37:54;;;;;;;0.00;0.00;;;8.60;72.00;;;;;;4967541;28;20510;-64
2023/05/03 00:40:19;;;;;;;0.00;0.00;;;8.60;71.80;;;;;;4955703;28;20070;-65
2023/05/03 00:42:45;;;;;;;0.00;0.00;;;8.60;72.10;;;;;;4983374;28;20507;-65
2023/05/03 00:45:11;;;;;;;0.00;0.00;;;8.70;72.10;;;;;;4973629;28;20121;-64
2023/05/03 00:47:37;;;;;;;0.00;0.00;;;8.70;72.20;;;;;;4967852;28;20085;-65
2023/05/03 00:50:04;;;;;;;0.00;0.00;;;8.70;71.80;;;;;;4961738;28;20050;-65
2023/05/03 00:52:30;;;;;;;0.00;0.00;;;8.60;71.80;;;;;;4970597;28;20043;-65
2023/05/03 00:54:59;;;;;;;0.00;0.00;;;8.70;71.80;;;;;;4973091;28;20062;-65
2023/05/03 00:57:26;;;;;;;0.00;0.00;;;8.70;71.70;;;;;;4970963;28;20043;-65
2023/05/03 00:59:52;;;;;;;0.00;0.00;;;8.70;71.80;;;;;;4963248;28;20043;-65
2023/05/03 01:02:17;;;;;;;0.10;0.10;;;8.70;72.50;;;;;;4966131;28;20054;-65
2023/05/03 01:04:44;;;;;;;0.00;0.00;;;8.70;72.30;;;;;;4961851;28;20915;-65
2023/05/03 01:07:36;;;;;;;0.00;0.00;;;8.70;72.10;;;;;;4972874;28;20085;-65
2023/05/03 01:10:35;;;;;;;0.00;0.00;;;8.70;72.10;;;;;;4963381;28;20049;-65
2023/05/03 01:13:08;;;;;;;0.00;0.00;;;8.70;72.10;;;;;;4973343;28;20050;-65
2023/05/03 01:16:04;;;;;;;0.00;0.00;;;8.80;72.20;;;;;;4982034;28;20045;-65
2023/05/03 01:18:33;;;;;;;0.00;0.00;;;8.80;72.00;;;;;;4978367;28;20122;-64
2023/05/03 01:21:00;;;;;;;0.00;0.00;;;8.80;71.90;;;;;;4958261;28;20047;-65
2023/05/03 01:23:47;;;;;;;0.00;0.00;;;8.80;72.00;;;;;;4980661;28;20046;-65
2023/05/03 01:26:26;;;;;;;0.00;0.00;;;8.80;72.00;;;;;;4987784;28;20138;-64
2023/05/03 01:28:52;;;;;;;0.00;0.00;;;8.80;72.10;;;;;;4978180;28;20400;-65
2023/05/03 01:31:42;;;;;;;0.00;0.00;;;8.80;72.00;;;;;;4972060;28;20400;-64
2023/05/03 01:34:13;;;;;;;0.00;0.00;;;8.90;72.00;;;;;;4961225;28;20578;-65
2023/05/03 01:36:42;;;;;;;0.00;0.00;;;8.90;72.00;;;;;;4967369;28;20047;-65
2023/05/03 01:39:15;;;;;;;0.00;0.00;;;8.90;72.30;;;;;;4983607;28;20825;-64
2023/05/03 01:41:41;;;;;;;0.00;0.00;;;8.90;72.20;;;;;;4974089;28;20039;-65
2023/05/03 01:44:09;;;;;;;0.00;0.00;;;8.90;72.00;;;;;;4959996;28;20539;-65
2023/05/03 01:46:41;;;;;;;0.00;0.00;;;8.90;72.00;;;;;;4973127;28;20039;-65
2023/05/03 01:49:07;;;;;;;0.00;0.00;;;8.90;72.10;;;;;;4979195;28;20043;-65
2023/05/03 01:51:33;;;;;;;0.00;0.00;;;8.80;73.00;;;;;;4969635;28;20089;-65
2023/05/03 01:53:58;;;;;;;0.00;0.00;;;8.70;73.10;;;;;;4974613;28;20046;-65
2023/05/03 01:56:25;;;;;;;0.00;0.00;;;8.70;72.90;;;;;;4970319;28;20054;-65
2023/05/03 01:58:50;;;;;;;0.15;0.15;;;8.70;72.80;;;;;;4981992;28;20042;-65
2023/05/03 02:01:16;;;;;;;0.00;0.00;;;8.60;73.00;;;;;;4974682;28;20527;-65
2023/05/03 02:03:41;;;;;;;0.00;0.00;;;8.60;72.90;;;;;;4971585;28;20061;-65
2023/05/03 02:06:07;;;;;;;0.00;0.00;;;8.60;73.20;;;;;;4971920;28;20053;-65
2023/05/03 02:08:32;;;;;;;0.00;0.00;;;8.60;73.70;;;;;;4981285;28;20098;-64
2023/05/03 02:10:58;;;;;;;0.00;0.00;;;8.60;73.60;;;;;;4962185;28;20050;-65
2023/05/03 02:13:23;;;;;;;0.00;0.00;;;8.60;73.60;;;;;;4954242;28;20094;-65
2023/05/03 02:15:49;;;;;;;0.00;0.00;;;8.60;73.40;;;;;;4962172;28;20035;-64
2023/05/03 02:18:15;;;;;;;0.00;0.00;;;8.60;73.60;;;;;;4988613;28;20089;-65
2023/05/03 02:20:44;;;;;;;0.00;0.00;;;8.60;73.70;;;;;;4971148;28;20628;-64
2023/05/03 02:23:10;;;;;;;0.03;0.03;;;8.60;73.50;;;;;;4970872;28;20047;-65
2023/05/03 02:25:35;;;;;;;0.00;0.00;;;8.60;73.30;;;;;;4972767;28;20404;-64
2023/05/03 02:28:02;;;;;;;0.00;0.00;;;8.60;73.30;;;;;;4975779;28;20055;-64
2023/05/03 02:30:27;;;;;;;0.00;0.00;;;8.60;73.20;;;;;;4974299;28;20062;-64
2023/05/03 02:32:53;;;;;;;0.00;0.00;;;8.60;73.20;;;;;;4981063;28;20047;-64
2023/05/03 02:35:18;;;;;;;0.00;0.00;;;8.60;73.10;;;;;;4975120;28;20038;-65
2023/05/03 02:37:44;;;;;;;0.00;0.00;;;8.60;73.20;;;;;;4989461;28;20054;-65
2023/05/03 02:40:10;;;;;;;0.00;0.00;;;8.70;73.20;;;;;;4974504;28;20043;-65
2023/05/03 02:42:36;;;;;;;0.00;0.00;;;8.70;73.10;;;;;;4968842;28;20101;-64
2023/05/03 02:45:02;;;;;;;0.05;0.05;;;8.70;72.70;;;;;;4970438;28;20515;-65
2023/05/03 02:47:28;;;;;;;0.00;0.00;;;8.70;72.70;;;;;;4971554;28;20042;-65
2023/05/03 02:49:53;;;;;;;0.05;0.05;;;8.70;72.50;;;;;;4965715;28;20408;-64
2023/05/03 02:52:19;;;;;;;0.00;0.00;;;8.70;72.50;;;;;;4954245;28;20055;-64
2023/05/03 02:54:45;;;;;;;0.00;0.00;;;8.70;72.20;;;;;;4972178;28;20038;-65
2023/05/03 02:57:11;;;;;;;0.00;0.00;;;8.70;71.80;;;;;;4971787;28;20275;-65
2023/05/03 02:59:37;;;;;;;0.00;0.00;;;8.60;71.50;;;;;;4970262;28;20695;-65
2023/05/03 03:02:02;;;;;;;0.00;0.00;;;8.60;71.30;;;;;;4968431;28;20088;-65
2023/05/03 03:04:28;;;;;;;0.00;0.00;;;8.60;71.30;;;;;;4970942;28;20878;-64
2023/05/03 03:06:55;;;;;;;0.20;0.20;;;8.60;71.40;;;;;;4986737;28;20042;-64
2023/05/03 03:09:21;;;;;;;0.00;0.00;;;8.60;71.50;;;;;;4971728;28;20055;-65
2023/05/03 03:11:46;;;;;;;0.00;0.00;;;8.60;71.50;;;;;;4972027;28;20062;-65
2023/05/03 03:14:12;;;;;;;0.00;0.00;;;8.60;71.80;;;;;;4984827;28;20734;-65
2023/05/03 03:16:37;;;;;;;0.10;0.10;;;8.60;71.90;;;;;;4977826;28;20487;-65
2023/05/03 03:19:03;;;;;;;0.00;0.00;;;8.70;71.90;;;;;;4989244;28;20495;-65
2023/05/03 03:21:31;;;;;;;0.00;0.00;;;8.70;71.90;;;;;;4983269;28;20038;-65
2023/05/03 03:23:57;;;;;;;0.00;0.00;;;8.70;71.60;;;;;;4990559;28;20049;-64
2023/05/03 03:26:22;;;;;;;0.00;0.00;;;8.60;71.30;;;;;;4957688;28;20134;-65
2023/05/03 03:28:48;;;;;;;0.00;0.00;;;8.60;71.10;;;;;;4963573;28;20721;-65
2023/05/03 03:31:13;;;;;;;0.00;0.00;;;8.60;71.10;;;;;;4965710;28;20043;-64
2023/05/03 03:33:39;;;;;;;0.03;0.03;;;8.70;71.00;;;;;;4980649;28;20403;-65
2023/05/03 03:36:06;;;;;;;0.00;0.00;;;8.70;70.90;;;;;;4988569;28;20556;-65
2023/05/03 03:38:32;;;;;;;0.00;0.00;;;8.60;71.00;;;;;;4985630;28;20046;-64
2023/05/03 03:40:58;;;;;;;0.00;0.00;;;8.70;71.10;;;;;;4984297;28;20045;-64
2023/05/03 03:43:23;;;;;;;0.00;0.00;;;8.70;71.10;;;;;;4969536;28;20086;-65
2023/05/03 03:45:49;;;;;;;0.00;0.00;;;8.70;71.10;;;;;;4970519;28;20046;-65
2023/05/03 03:48:14;;;;;;;0.00;0.00;;;8.70;71.00;;;;;;4978546;28;20093;-65
2023/05/03 03:50:40;;;;;;;0.00;0.00;;;8.80;71.00;;;;;;4969860;28;20074;-65
2023/05/03 03:53:08;;;;;;;0.00;0.00;;;8.70;70.90;;;;;;4971645;28;20137;-65
2023/05/03 03:55:34;;;;;;;0.00;0.00;;;8.80;71.00;;;;;;4950507;28;20043;-65
2023/05/03 03:58:00;;;;;;;0.00;0.00;;;8.80;71.30;;;;;;4966723;28;20407;-65
2023/05/03 04:00:25;;;;;;;0.00;0.00;;;8.90;71.20;;;;;;4984073;28;20055;-65
2023/05/03 04:02:51;;;;;;;0.00;0.00;;;8.80;71.10;;;;;;4978176;28;20571;-65
2023/05/03 04:05:17;;;;;;;0.00;0.00;;;8.80;70.90;;;;;;4978205;28;20038;-66
2023/05/03 04:07:42;;;;;;;0.00;0.00;;;8.80;70.80;;;;;;4966560;28;20039;-65
2023/05/03 04:10:08;;;;;;;0.00;0.00;;;8.70;70.70;;;;;;4965837;28;20369;-65
2023/05/03 04:12:34;;;;;;;0.00;0.00;;;8.70;70.50;;;;;;4978347;28;20043;-65
2023/05/03 04:14:59;;;;;;;0.00;0.00;;;8.70;70.40;;;;;;4960278;28;20479;-65
2023/05/03 04:17:25;;;;;;;0.00;0.00;;;8.70;70.40;;;;;;4968189;28;20758;-67
2023/05/03 04:19:51;;;;;;;0.00;0.00;;;8.70;70.50;;;;;;4969626;28;20090;-65
2023/05/03 04:22:16;;;;;;;0.00;0.00;;;8.70;70.40;;;;;;4966648;28;20031;-65
2023/05/03 04:24:42;;;;;;;0.00;0.00;;;8.70;70.20;;;;;;4974438;28;20486;-65
2023/05/03 04:27:08;;;;;;;0.00;0.00;;;8.60;70.30;;;;;;4973071;28;20062;-65
2023/05/03 04:29:34;;;;;;;0.00;0.00;;;8.60;70.30;;;;;;4981562;28;20053;-64
2023/05/03 04:32:01;;;;;;;0.00;0.00;;;8.70;70.40;;;;;;4972965;28;20118;-64
2023/05/03 04:34:29;;;;;;;0.00;0.00;;;8.70;70.00;;;;;;4951202;28;20051;-64
2023/05/03 04:36:54;;;;;;;0.00;0.00;;;8.70;69.30;;;;;;4975015;28;20046;-65
2023/05/03 04:39:21;;;;;;;0.00;0.00;;;8.60;68.70;;;;;;4968203;28;20409;-64
2023/05/03 04:41:46;;;;;;;0.00;0.00;;;8.60;67.80;;;;;;4978255;28;20056;-71
2023/05/03 04:44:13;;;;;;;0.00;0.00;;;9.10;77.70;;;;;;4985763;28;20047;-65
2023/05/03 04:46:39;;;;;;;0.00;0.00;;;9.30;72.00;;;;;;4970016;28;20074;-65
2023/05/03 04:49:05;;;;;;;0.00;0.00;;;9.30;69.60;;;;;;4969362;28;20046;-65
2023/05/03 04:51:30;;;;;;;0.00;0.00;;;9.20;69.20;;;;;;4970035;28;20053;-65
2023/05/03 04:53:57;;;;;;;0.00;0.00;;;9.20;68.70;;;;;;4971858;28;20057;-65
2023/05/03 04:56:25;;;;;;;0.00;0.00;;;9.10;68.10;;;;;;4968295;28;20050;-65
2023/05/03 04:58:51;;;;;;;0.00;0.00;;;9.10;68.20;;;;;;4969230;28;20051;-65
2023/05/03 05:01:17;;;;;;;0.00;0.00;;;9.00;67.90;;;;;;4969631;28;20102;-65
2023/05/03 05:03:43;;;;;;;0.00;0.00;;;9.00;67.80;;;;;;4970140;28;20047;-64
2023/05/03 05:06:11;;;;;;;0.00;0.00;;;9.00;68.10;;;;;;4969917;28;20049;-65
2023/05/03 05:08:36;;;;;;;0.47;0.47;;;8.90;68.10;;;;;;4970274;28;20047;-65
2023/05/03 05:11:03;;;;;;;0.00;0.00;;;8.90;68.00;;;;;;4970239;28;20065;-65
2023/05/03 05:13:29;;;;;;;0.00;0.00;;;8.90;68.10;;;;;;4970301;28;20064;-65
2023/05/03 05:15:54;;;;;;;0.00;0.00;;;8.90;68.20;;;;;;4971115;28;20050;-64
2023/05/03 05:18:20;;;;;;;0.00;0.00;;;9.00;68.10;;;;;;4973080;28;20074;-65
2023/05/03 05:20:45;;;;;;;0.00;0.00;;;9.00;67.70;;;;;;4989529;28;20091;-65
2023/05/03 05:23:11;;;;;;;0.00;0.00;;;9.00;67.40;;;;;;4989461;28;20039;-64
2023/05/03 05:25:36;;;;;;;0.00;0.00;;;9.00;67.00;;;;;;4988159;28;20070;-65
2023/05/03 05:28:02;;;;;;;0.00;0.00;;;9.00;66.80;;;;;;4989085;28;20080;-64
2023/05/03 05:30:28;;;;;;;0.00;0.00;;;9.00;66.80;;;;;;4989474;28;20046;-65
2023/05/03 05:32:53;;;;;;;0.00;0.00;;;9.00;66.60;;;;;;4988197;28;20054;-65
2023/05/03 05:35:19;;;;;;;0.00;0.00;;;9.00;66.00;;;;;;4989394;28;20038;-65
2023/05/03 05:37:44;;;;;;;0.00;0.00;;;9.00;65.80;;;;;;4989283;28;20047;-65
2023/05/03 05:40:11;;;;;;;0.00;0.00;;;9.00;66.10;;;;;;4992194;28;20089;-64
2023/05/03 05:42:36;;;;;;;0.00;0.00;;;9.00;66.00;;;;;;4992262;28;20491;-64
2023/05/03 05:45:02;;;;;;;0.00;0.00;;;9.00;65.30;;;;;;4993154;28;20039;-64
2023/05/03 05:47:28;;;;;;;0.00;0.00;;;9.00;65.70;;;;;;4992940;28;20506;-64
2023/05/03 05:49:54;;;;;;;0.00;0.00;;;9.00;65.10;;;;;;4992702;28;20859;-64
2023/05/03 05:52:19;;;;;;;0.00;0.00;;;9.10;65.70;;;;;;4992356;28;20046;-64
2023/05/03 05:54:45;;;;;;;0.00;0.00;;;9.10;65.70;;;;;;4992695;28;20053;-65
2023/05/03 05:57:12;;;;;;;0.00;0.00;;;9.20;66.40;;;;;;4986658;28;20043;-65
2023/05/03 05:59:38;;;;;;;0.00;0.00;;;9.30;66.60;;;;;;4972750;28;20058;-64
2023/05/03 06:02:03;;;;;;;0.00;0.00;;;9.40;66.40;;;;;;4972991;28;20035;-65
2023/05/03 06:04:29;;;;;;;0.00;0.00;;;9.40;66.50;;;;;;4971697;28;20046;-65
2023/05/03 06:06:55;;;;;;;0.00;0.00;;;9.50;66.10;;;;;;4972794;28;20599;-65
2023/05/03 06:09:21;;;;;;;0.00;0.00;;;9.50;65.90;;;;;;4972720;28;20161;-65
2023/05/03 06:11:46;;;;;;;0.00;0.00;;;9.60;66.20;;;;;;4970866;28;20061;-64
2023/05/03 06:14:12;;;;;;;0.00;0.00;;;9.60;66.40;;;;;;4967382;28;20102;-65
2023/05/03 06:16:38;;;;;;;0.00;0.00;;;9.60;65.90;;;;;;4953319;28;20138;-65
2023/05/03 06:19:06;;;;;;;0.00;0.00;;;9.70;66.20;;;;;;4960015;28;20050;-65
2023/05/03 06:21:32;;;;;;;0.00;0.00;;;9.70;66.20;;;;;;4987980;28;20046;-65
2023/05/03 06:23:57;;;;;;;0.00;0.00;;;9.70;65.50;;;;;;4962933;28;20043;-65
2023/05/03 06:26:23;;;;;;;0.00;0.00;;;9.70;65.00;;;;;;4971913;28;20039;-65
2023/05/03 06:28:49;;;;;;;0.10;0.10;;;9.80;65.30;;;;;;4970472;28;20055;-65
2023/05/03 06:31:15;;;;;;;0.00;0.00;;;9.80;65.30;;;;;;4972437;28;20046;-65
2023/05/03 06:33:41;;;;;;;0.00;0.00;;;9.90;65.60;;;;;;4965651;28;20051;-65
2023/05/03 06:36:07;;;;;;;0.00;0.00;;;10.00;65.70;;;;;;4956409;28;20141;-65
2023/05/03 06:38:33;;;;;;;0.00;0.00;;;10.00;65.00;;;;;;4954258;28;20042;-65
2023/05/03 06:40:58;;;;;;;0.00;0.00;;;10.10;64.50;;;;;;4972314;28;20053;-65
2023/05/03 06:43:24;;;;;;;0.00;0.00;;;10.10;64.80;;;;;;4964251;28;20058;-65
2023/05/03 06:45:51;;;;;;;0.00;0.00;;;10.00;64.80;;;;;;4956854;28;20097;-65
2023/05/03 06:48:17;;;;;;;0.00;0.00;;;10.10;64.30;;;;;;4967200;28;20263;-64
2023/05/03 06:50:42;;;;;;;0.00;0.00;;;10.10;64.10;;;;;;4968229;28;20043;-63
2023/05/03 06:53:08;;;;;;;0.00;0.00;;;10.10;63.90;;;;;;4971561;28;20051;-63
2023/05/03 06:55:33;;;;;;;0.00;0.00;;;10.10;63.80;;;;;;4968510;28;20149;-63
2023/05/03 06:57:59;;;;;;;0.00;0.00;;;10.10;64.10;;;;;;4970864;28;20080;-63
2023/05/03 07:00:25;;;;;;;0.00;0.00;;;10.20;64.40;;;;;;4966345;28;20047;-63
2023/05/03 07:02:50;;;;;;;0.00;0.00;;;10.20;63.90;;;;;;4961540;28;20956;-63
2023/05/03 07:05:16;;;;;;;0.00;0.00;;;10.30;64.30;;;;;;4965239;28;20480;-64
2023/05/03 07:07:42;;;;;;;0.00;0.00;;;10.30;64.30;;;;;;4988230;28;20039;-62
2023/05/03 07:10:07;;;;;;;0.00;0.00;;;10.40;64.20;;;;;;4979911;28;20047;-62
2023/05/03 07:12:33;;;;;;;0.00;0.00;;;10.30;63.70;;;;;;4972067;28;20552;-63
2023/05/03 07:14:58;;;;;;;0.00;0.00;;;10.40;63.90;;;;;;4970177;28;20090;-62
2023/05/03 07:17:25;;;;;;;0.00;0.00;;;10.40;63.40;;;;;;4971185;28;20066;-63
2023/05/03 07:19:51;;;;;;;0.00;0.00;;;10.40;63.70;;;;;;4969681;28;20046;-63
2023/05/03 07:22:20;;;;;;;0.20;0.20;;;10.40;63.80;;;;;;4957991;28;20504;-63
2023/05/03 07:24:45;;;;;;;0.00;0.00;;;10.50;63.40;;;;;;4983238;28;20039;-62
2023/05/03 07:27:12;;;;;;;0.00;0.00;;;10.50;61.80;;;;;;4970581;28;20058;-63
2023/05/03 07:29:37;;;;;;;0.00;0.00;;;10.50;62.50;;;;;;4969758;28;20051;-63
2023/05/03 07:32:04;;;;;;;0.00;0.00;;;10.50;61.90;;;;;;4959795;28;20565;-63
2023/05/03 07:34:31;;;;;;;0.00;0.00;;;10.50;62.30;;;;;;4963573;28;20042;-62
2023/05/03 07:36:57;;;;;;;0.00;0.00;;;10.50;61.10;;;;;;4950827;28;20059;-63
2023/05/03 07:39:22;;;;;;;0.00;0.00;;;10.50;62.10;;;;;;4951430;28;20127;-62
2023/05/03 07:41:48;;;;;;;0.10;0.10;;;10.60;61.80;;;;;;4952265;28;20043;-63
2023/05/03 07:44:13;;;;;;;0.00;0.00;;;10.60;62.40;;;;;;4951042;28;20043;-63
2023/05/03 07:46:39;;;;;;;0.00;0.00;;;10.60;62.10;;;;;;4966528;28;20054;-62
2023/05/03 07:49:05;;;;;;;0.00;0.00;;;10.60;62.00;;;;;;4970083;28;20105;-62
2023/05/03 07:51:37;;;;;;;0.00;0.00;;;10.70;62.20;;;;;;4964655;28;20050;-63
2023/05/03 07:54:04;;;;;;;0.00;0.00;;;10.60;61.10;;;;;;4966269;28;20050;-64
2023/05/03 07:56:30;;;;;;;0.00;0.00;;;10.70;61.30;;;;;;4963765;28;20503;-63
2023/05/03 07:58:56;;;;;;;0.00;0.00;;;10.70;62.20;;;;;;4970011;28;20066;-63
2023/05/03 08:01:21;;;;;;;0.00;0.00;;;10.80;62.30;;;;;;4957300;28;20047;-63
2023/05/03 08:03:49;;;;;;;0.00;0.00;;;10.90;61.80;;;;;;4951373;28;20053;-63
2023/05/03 08:06:15;;;;;;;0.00;0.00;;;10.90;61.60;;;;;;4959249;28;20057;-63
2023/05/03 08:08:41;;;;;;;0.00;0.00;;;10.90;61.10;;;;;;4970008;28;20047;-63
2023/05/03 08:11:07;;;;;;;0.00;0.00;;;11.00;61.80;;;;;;4960510;28;20051;-63
2023/05/03 08:13:32;;;;;;;0.00;0.00;;;11.00;61.10;;;;;;4959138;28;20478;-63
2023/05/03 08:15:58;;;;;;;0.00;0.00;;;11.10;61.50;;;;;;4961337;28;20086;-63
2023/05/03 08:18:24;;;;;;;0.00;0.00;;;11.20;62.10;;;;;;4968862;28;20042;-63
2023/05/03 08:20:50;;;;;;;0.00;0.00;;;11.20;62.30;;;;;;4965273;28;20436;-63
2023/05/03 08:23:16;;;;;;;0.00;0.00;;;11.30;62.20;;;;;;4959036;28;20463;-63
2023/05/03 08:25:44;;;;;;;0.00;0.00;;;11.30;61.80;;;;;;4967217;28;20054;-63
2023/05/03 08:28:10;;;;;;;0.00;0.00;;;11.30;61.90;;;;;;4968701;28;20133;-64
2023/05/03 08:30:36;;;;;;;0.00;0.00;;;11.40;61.80;;;;;;4967158;28;20046;-63
2023/05/03 08:33:01;;;;;;;0.00;0.00;;;11.40;61.90;;;;;;4975888;28;20470;-63
2023/05/03 08:35:27;;;;;;;0.00;0.00;;;11.40;60.50;;;;;;4971456;28;20046;-62
2023/05/03 08:37:52;;;;;;;0.00;0.00;;;11.40;61.20;;;;;;4957949;28;20039;-63
2023/05/03 08:40:21;;;;;;;0.00;0.00;;;11.30;60.40;;;;;;4955625;28;20074;-66
2023/05/03 08:42:47;;;;;;;0.00;0.00;;;11.40;63.70;;;;;;4953337;28;20039;-63
2023/05/03 08:45:15;;;;;;;0.00;0.00;;;11.70;66.70;;;;;;4968985;28;20504;-62
2023/05/03 08:47:43;;;;;;;0.00;0.00;;;11.80;60.90;;;;;;4968739;28;20126;-63
2023/05/03 08:50:13;;;;;;;0.00;0.00;;;11.70;61.50;;;;;;4950847;28;20071;-63
2023/05/03 08:52:41;;;;;;;0.05;0.05;;;11.60;59.60;;;;;;4964512;28;20051;-63
2023/05/03 08:55:08;;;;;;;0.00;0.00;;;11.40;60.90;;;;;;4950705;28;20485;-62
2023/05/03 08:57:37;;;;;;;0.00;0.00;;;11.40;61.00;;;;;;4962771;28;20173;-63
2023/05/03 09:00:10;;;;;;;0.00;0.00;;;11.20;59.50;;;;;;4966465;28;20043;-63
2023/05/03 09:02:38;;;;;;;0.00;0.00;;;11.30;60.50;;;;;;4960167;28;20098;-63
2023/05/03 09:05:25;;;;;;;0.00;0.00;;;11.20;60.40;;;;;;4966593;28;20074;-63
2023/05/03 09:08:23;;;;;;;0.20;0.20;;;11.10;59.90;;;;;;4955369;28;20055;-62
2023/05/03 09:10:48;;;;;;;0.00;0.00;;;11.00;59.70;;;;;;4967510;28;20059;-62
2023/05/03 09:13:14;;;;;;;0.00;0.00;;;11.00;60.50;;;;;;4965078;28;20057;-63
2023/05/03 09:15:40;;;;;;;0.00;0.00;;;11.00;60.50;;;;;;4955948;28;20062;-62
2023/05/03 09:18:15;;;;;;;0.00;0.00;;;11.00;61.20;;;;;;4957191;28;20039;-63
2023/05/03 09:20:41;;;;;;;0.00;0.00;;;11.00;61.30;;;;;;4973717;28;20097;-63
2023/05/03 09:23:08;;;;;;;0.00;0.00;;;11.00;61.20;;;;;;4974275;28;20050;-63
2023/05/03 09:25:48;;;;;;;0.00;0.00;;;11.00;61.10;;;;;;4973117;28;20045;-63
2023/05/03 09:28:16;;;;;;;0.00;0.00;;;11.10;60.70;;;;;;4971604;28;20169;-62
2023/05/03 09:30:43;;;;;;;0.00;0.00;;;11.10;60.90;;;;;;4972839;28;20065;-63
2023/05/03 09:33:09;;;;;;;0.10;0.10;;;11.10;59.90;;;;;;4971447;28;20051;-63
2023/05/03 09:35:34;;;;;;;0.00;0.00;;;11.10;60.10;;;;;;4948098;28;20058;-63
2023/05/03 09:38:00;;;;;;;0.00;0.00;;;11.20;59.70;;;;;;4952511;28;20047;-63
2023/05/03 09:40:28;;;;;;;0.00;0.00;;;11.20;60.40;;;;;;4958026;28;20043;-63
2023/05/03 09:43:07;;;;;;;0.00;0.00;;;11.30;59.90;;;;;;4972784;28;20125;-62
2023/05/03 09:45:34;;;;;;;0.00;0.00;;;11.30;60.90;;;;;;4967614;28;20047;-62
2023/05/03 09:48:02;;;;;;;0.00;0.00;;;11.50;61.30;;;;;;4952538;28;20090;-63
2023/05/03 09:50:30;;;;;;;0.00;0.00;;;11.60;61.40;;;;;;4957797;28;20046;-63
2023/05/03 09:53:00;;;;;;;0.00;0.00;;;11.70;61.40;;;;;;4972402;28;20527;-63
2023/05/03 09:55:26;;;;;;;0.00;0.00;;;11.80;61.40;;;;;;4969577;28;20091;-63
2023/05/03 09:57:54;;;;;;;0.00;0.00;;;11.90;61.00;;;;;;4961585;28;20097;-63
2023/05/03 10:00:20;;;;;;;0.00;0.00;;;12.10;60.70;;;;;;4971369;28;20058;-64
2023/05/03 10:02:49;;;;;;;0.00;0.00;;;12.10;59.60;;;;;;4953678;28;20043;-63
2023/05/03 10:05:19;;;;;;;0.00;0.00;;;12.10;59.80;;;;;;4952374;28;20043;-63
2023/05/03 10:07:49;;;;;;;0.00;0.00;;;12.00;58.20;;;;;;4971698;28;20042;-62
2023/05/03 10:10:15;;;;;;;0.00;0.00;;;12.10;59.80;;;;;;4972475;28;20047;-63
2023/05/03 10:12:42;;;;;;;0.10;0.10;;;12.00;60.10;;;;;;4956345;28;20043;-63
2023/05/03 10:15:11;;;;;;;0.00;0.00;;;12.00;59.20;;;;;;4973128;28;20053;-62
2023/05/03 10:17:39;;;;;;;0.17;0.17;;;11.90;59.40;;;;;;4970222;28;20074;-63
2023/05/03 10:20:37;;;;;;;0.00;0.00;;;11.90;59.20;;;;;;4971915;28;20546;-62
2023/05/03 10:23:07;;;;;;;0.00;0.00;;;12.00;59.90;;;;;;4970425;28;20046;-63
2023/05/03 10:25:34;;;;;;;0.00;0.00;;;12.10;59.50;;;;;;4969526;28;20455;-63
2023/05/03 10:28:04;;;;;;;0.00;0.00;;;12.10;59.70;;;;;;4970096;28;20051;-63
2023/05/03 10:30:31;;;;;;;0.00;0.00;;;12.20;59.30;;;;;;4962105;28;20121;-63
2023/05/03 10:32:58;;;;;;;0.00;0.00;;;12.20;58.60;;;;;;4971959;28;20054;-62
2023/05/03 10:35:28;;;;;;;0.32;0.32;;;12.20;58.70;;;;;;4971930;28;20090;-63
2023/05/03 10:37:57;;;;;;;0.00;0.00;;;12.30;59.10;;;;;;4953664;28;20130;-63
2023/05/03 10:40:23;;;;;;;0.00;0.00;;;12.30;59.60;;;;;;4952495;28;20047;-62
2023/05/03 10:42:55;;;;;;;0.00;0.00;;;12.40;58.80;;;;;;4952758;28;20051;-64
2023/05/03 10:45:24;;;;;;;0.00;0.00;;;12.40;57.70;;;;;;4952726;28;20102;-63
2023/05/03 10:48:11;;;;;;;0.00;0.00;;;12.30;58.30;;;;;;4951935;28;20035;-63
2023/05/03 10:50:38;;;;;;;0.00;0.00;;;12.40;59.00;;;;;;4952288;29;20515;-62
2023/05/03 10:53:04;;;;;;;0.00;0.00;;;12.50;58.90;;;;;;4952404;28;20133;-63
2023/05/03 10:55:32;;;;;;;0.00;0.00;;;12.50;58.80;;;;;;4951756;29;20109;-62
2023/05/03 10:57:59;;;;;;;0.00;0.00;;;12.50;57.90;;;;;;4950806;28;20054;-63
2023/05/03 11:00:34;;;;;;;0.75;0.75;;;12.40;57.60;;;;;;4961625;28;20101;-62
2023/05/03 11:03:08;;;;;;;0.10;0.10;;;12.40;58.60;;;;;;4959790;28;20432;-63
2023/05/03 11:05:35;;;;;;;0.10;0.10;;;12.50;58.40;;;;;;4959138;28;20054;-62
2023/05/03 11:08:18;;;;;;;0.00;0.00;;;12.50;58.40;;;;;;4971328;28;20496;-63
2023/05/03 11:10:46;;;;;;;0.00;0.00;;;12.40;58.10;;;;;;4971285;28;20051;-63
2023/05/03 11:13:12;;;;;;;0.00;0.00;;;12.30;58.20;;;;;;4955378;28;20070;-63
2023/05/03 11:15:38;;;;;;;0.00;0.00;;;12.20;58.20;;;;;;4951534;28;20047;-62
2023/05/03 11:18:10;;;;;;;0.20;0.20;;;12.10;58.40;;;;;;4963645;28;20061;-63
2023/05/03 11:20:35;;;;;;;;;;;12.10;58.60;;;;;;4959998;28;20041;-62
2023/05/03 11:23:02;;;;;;;0.00;0.00;;;12.10;58.50;;;;;;4971122;28;19933;-63
2023/05/03 11:25:28;;;;;;;0.00;0.00;;;12.10;59.40;;;;;;4968611;28;20118;-63
2023/05/03 11:27:54;;;;;;;0.00;0.00;;;12.20;59.30;;;;;;4952427;28;20130;-63
2023/05/03 11:30:19;;;;;;;0.20;0.20;;;12.30;57.70;;;;;;4969409;28;20096;-63
2023/05/03 11:32:46;;;;;;;0.75;0.75;;;12.30;57.80;;;;;;4955671;28;20094;-63
2023/05/03 11:35:12;;;;;;;0.10;0.10;;;12.20;57.80;;;;;;4955442;28;20053;-63
2023/05/03 11:37:38;;;;;;;0.00;0.00;;;12.20;58.40;;;;;;4952407;28;20081;-63
2023/05/03 11:40:06;;;;;;;0.00;0.00;;;12.20;57.30;;;;;;4951794;28;20818;-63
2023/05/03 11:42:33;;;;;;;0.00;0.00;;;12.30;57.20;;;;;;4953767;28;20047;-62
2023/05/03 11:45:00;;;;;;;0.00;0.00;;;12.20;57.70;;;;;;4955984;28;20054;-63
2023/05/03 11:47:26;;;;;;;0.00;0.00;;;12.20;57.60;;;;;;4954536;28;20061;-63
2023/05/03 11:49:56;;;;;;;0.00;0.00;;;12.20;57.90;;;;;;4970229;28;20105;-63
2023/05/03 11:52:24;;;;;;;0.00;0.00;;;12.20;56.50;;;;;;4966940;28;20089;-63
2023/05/03 11:54:50;;;;;;;0.00;0.00;;;12.20;56.80;;;;;;4950155;28;20504;-63
2023/05/03 11:57:16;;;;;;;0.00;0.00;;;12.10;57.30;;;;;;4950072;28;20047;-63
2023/05/03 11:59:43;;;;;;;0.00;0.00;;;12.20;57.40;;;;;;4958543;28;20162;-63
2023/05/03 12:02:11;;;;;;;0.00;0.00;;;12.40;57.80;;;;;;4950908;28;20043;-63
2023/05/03 12:04:41;;;;;;;0.00;0.00;;;12.50;57.60;;;;;;4969462;28;20050;-63
2023/05/03 12:07:08;;;;;;;0.00;0.00;;;12.60;57.20;;;;;;4955690;28;20451;-62
2023/05/03 12:09:34;;;;;;;0.00;0.00;;;12.80;57.00;;;;;;4950943;28;20051;-63
2023/05/03 12:12:01;;;;;;;0.00;0.00;;;13.00;57.00;;;;;;4951030;28;20094;-62
2023/05/03 12:14:27;;;;;;;0.00;0.00;;;13.20;56.80;;;;;;4951773;28;20479;-63
2023/05/03 12:16:53;;;;;;;0.00;0.00;;;13.30;56.00;;;;;;4951857;28;20074;-63
2023/05/03 12:19:37;;;;;;;0.00;0.00;;;13.30;56.60;;;;;;4963509;28;20097;-63
2023/05/03 12:22:03;;;;;;;0.00;0.00;;;13.40;55.50;;;;;;4955261;28;20051;-63
2023/05/03 12:24:28;;;;;;;0.05;0.05;;;13.30;55.30;;;;;;4965723;28;20051;-63
2023/05/03 12:26:54;;;;;;;0.10;0.10;;;13.30;56.30;;;;;;4967985;28;20042;-63
2023/05/03 12:29:19;;;;;;;0.00;0.00;;;13.50;57.00;;;;;;4956791;28;20059;-63
2023/05/03 12:31:45;;;;;;;0.00;0.00;;;13.60;55.60;;;;;;4953002;28;20059;-63
2023/05/03 12:34:11;;;;;;;0.00;0.00;;;13.70;54.70;;;;;;4953662;28;20058;-62
2023/05/03 12:36:37;;;;;;;0.00;0.00;;;13.80;55.20;;;;;;4950825;28;20063;-63
2023/05/03 12:39:03;;;;;;;0.00;0.00;;;13.90;55.40;;;;;;4958944;28;20039;-63
2023/05/03 12:41:30;;;;;;;0.00;0.00;;;13.90;54.70;;;;;;4969467;28;20035;-63
2023/05/03 12:44:01;;;;;;;0.00;0.00;;;14.00;55.00;;;;;;4956209;28;20100;-62
2023/05/03 12:46:26;;;;;;;0.00;0.00;;;13.90;53.10;;;;;;4973630;28;20047;-63
2023/05/03 12:48:52;;;;;;;0.22;0.22;;;13.80;52.90;;;;;;4986431;28;20096;-63
2023/05/03 12:51:18;;;;;;;0.32;0.32;;;13.90;54.30;;;;;;4977896;28;20492;-63
2023/05/03 12:53:44;;;;;;;0.00;0.00;;;14.00;55.10;;;;;;4976440;28;20065;-62